Time,TemperatureF,DewpointF,PressureIn,WindDirection,WindDirectionDegrees,WindSpeedMPH,WindSpeedGustMPH,Humidity,HourlyPrecipIn,Conditions,Clouds,dailyrainin,SoftwareType,DateUTC
2013-01-01 00:00:00,55.0,53.3,29.99,SW,227,0.0,2.0,94,0.00,,,0.00,VWS V14.01,2013-01-01 06:00:00,
2013-01-01 00:03:00,55.3,53.6,29.98,NW,326,0.0,1.0,94,0.00,,,0.00,VWS V14.01,2013-01-01 06:03:00,
2013-01-01 00:05:00,55.0,53.3,29.99,SW,227,0.0,2.0,94,0.00,,,0.00,VWS V14.01,2013-01-01 06:05:00,
2013-01-01 00:08:00,55.3,53.6,29.98,NW,326,1.0,1.0,94,0.00,,,0.00,VWS V14.01,2013-01-01 06:08:00,
2013-01-01 00:10:00,55.0,53.3,29.98,NNW,336,0.0,1.0,94,0.00,,,0.00,VWS V14.01,2013-01-01 06:10:00,
2013-01-01 00:13:00,55.3,53.6,29.98,NW,326,0.0,1.0,94,0.00,,,0.00,VWS V14.01,2013-01-01 06:13:00,
2013-01-01 00:15:00,54.9,53.2,29.97,North,4,0.0,0.0,94,0.01,,,0.01,VWS V14.01,2013-01-01 06:15:00,
2013-01-01 00:18:00,55.3,53.6,29.98,SW,226,0.0,3.0,94,0.00,,,0.00,VWS V14.01,2013-01-01 06:18:00,
2013-01-01 00:20:00,54.9,53.2,29.98,NNE,15,0.0,0.0,94,0.01,,,0.01,VWS V14.01,2013-01-01 06:20:00,
2013-01-01 00:23:00,55.3,53.6,29.98,SW,225,0.0,1.0,94,0.00,,,0.00,VWS V14.01,2013-01-01 06:23:00,
2013-01-01 00:25:00,54.9,53.2,29.98,WSW,258,0.0,0.0,94,0.01,,,0.01,VWS V14.01,2013-01-01 06:25:00,
2013-01-01 00:28:00,55.2,53.5,29.98,SW,225,0.0,0.0,94,0.00,,,0.00,VWS V14.01,2013-01-01 06:28:00,
2013-01-01 00:30:00,54.9,53.2,29.99,SW,215,0.0,3.0,94,0.01,,,0.01,VWS V14.01,2013-01-01 06:30:00,
2013-01-01 00:33:00,55.2,53.5,29.98,SW,225,0.0,0.0,94,0.00,,,0.00,VWS V14.01,2013-01-01 06:33:00,
2013-01-01 00:35:00,54.9,53.2,29.99,NNE,26,1.0,1.0,94,0.01,,,0.01,VWS V14.01,2013-01-01 06:35:00,
2013-01-01 00:38:00,55.2,53.5,29.98,SW,225,0.0,0.0,94,0.00,,,0.00,VWS V14.01,2013-01-01 06:38:00,
2013-01-01 00:40:00,54.9,53.2,29.99,NNE,26,0.0,2.0,94,0.01,,,0.01,VWS V14.01,2013-01-01 06:40:00,
2013-01-01 00:43:00,55.1,53.4,29.97,SW,226,0.0,0.0,94,0.00,,,0.00,VWS V14.01,2013-01-01 06:43:00,
2013-01-01 00:45:00,54.9,53.2,29.99,NNE,26,0.0,1.0,94,0.01,,,0.01,VWS V14.01,2013-01-01 06:45:00,
2013-01-01 00:48:00,55.1,53.4,29.98,SW,226,1.0,1.0,94,0.00,,,0.00,VWS V14.01,2013-01-01 06:48:00,
2013-01-01 00:50:00,54.9,53.2,30.00,WNW,299,0.0,2.0,94,0.01,,,0.01,VWS V14.01,2013-01-01 06:50:00,
2013-01-01 00:53:00,55.1,53.4,29.98,SW,225,1.0,1.0,94,0.00,,,0.00,VWS V14.01,2013-01-01 06:53:00,
2013-01-01 00:55:00,54.9,53.2,29.99,NW,317,0.0,2.0,94,0.01,,,0.01,VWS V14.01,2013-01-01 06:55:00,
2013-01-01 00:58:00,55.1,53.4,29.99,SW,225,0.0,2.0,94,0.00,,,0.00,VWS V14.01,2013-01-01 06:58:00,
2013-01-01 01:00:00,54.9,53.2,29.98,NE,36,3.0,3.0,94,0.01,,,0.01,VWS V14.01,2013-01-01 07:00:00,
2013-01-01 01:03:00,55.0,53.3,29.99,SW,227,1.0,1.0,94,0.00,,,0.00,VWS V14.01,2013-01-01 07:03:00,
2013-01-01 01:05:00,54.8,53.1,29.99,NNE,23,0.0,3.0,94,0.01,,,0.01,VWS V14.01,2013-01-01 07:05:00,
2013-01-01 01:08:00,55.0,53.3,29.99,NNW,336,0.0,1.0,94,0.00,,,0.00,VWS V14.01,2013-01-01 07:08:00,
2013-01-01 01:10:00,54.8,53.1,29.99,ENE,66,2.0,2.0,94,0.01,,,0.01,VWS V14.01,2013-01-01 07:10:00,
2013-01-01 01:13:00,54.9,53.2,29.98,NNW,336,0.0,0.0,94,0.01,,,0.01,VWS V14.01,2013-01-01 07:13:00,
2013-01-01 01:15:00,54.8,53.1,29.99,ENE,64,0.0,2.0,94,0.01,,,0.01,VWS V14.01,2013-01-01 07:15:00,
2013-01-01 01:18:00,54.9,53.2,29.98,North,5,0.0,0.0,94,0.01,,,0.01,VWS V14.01,2013-01-01 07:18:00,
2013-01-01 01:20:00,54.8,53.1,29.98,ENE,67,2.0,2.0,94,0.00,,,0.01,VWS V14.01,2013-01-01 07:20:00,
2013-01-01 01:22:00,54.9,53.2,29.98,NNE,16,0.0,0.0,94,0.01,,,0.01,VWS V14.01,2013-01-01 07:22:00,
2013-01-01 01:25:00,54.8,53.1,29.98,ENE,60,1.0,4.0,94,0.00,,,0.01,VWS V14.01,2013-01-01 07:25:00,
2013-01-01 01:27:00,54.9,53.2,29.98,SW,230,2.0,3.0,94,0.01,,,0.01,VWS V14.01,2013-01-01 07:27:00,
2013-01-01 01:30:00,54.8,53.1,29.98,NE,43,0.0,2.0,94,0.00,,,0.01,VWS V14.01,2013-01-01 07:30:00,
2013-01-01 01:32:00,54.9,53.2,29.99,NNW,345,0.0,1.0,94,0.01,,,0.01,VWS V14.01,2013-01-01 07:32:00,
2013-01-01 01:35:00,54.9,53.5,29.99,NE,40,3.0,3.0,95,0.00,,,0.01,VWS V14.01,2013-01-01 07:35:00,
2013-01-01 01:37:00,55.0,53.3,29.99,NNE,26,1.0,2.0,94,0.01,,,0.01,VWS V14.01,2013-01-01 07:37:00,
2013-01-01 01:40:00,54.9,53.5,30.00,NNE,21,4.0,5.0,95,0.00,,,0.01,VWS V14.01,2013-01-01 07:40:00,
2013-01-01 01:42:00,54.9,53.2,29.99,NNE,27,0.0,1.0,94,0.01,,,0.01,VWS V14.01,2013-01-01 07:42:00,
2013-01-01 01:45:00,55.0,53.6,30.00,North,8,3.0,4.0,95,0.03,,,0.04,VWS V14.01,2013-01-01 07:45:00,
2013-01-01 01:47:00,54.9,53.2,29.99,NNE,26,0.0,0.0,94,0.01,,,0.01,VWS V14.01,2013-01-01 07:47:00,
2013-01-01 01:50:00,55.0,53.6,30.00,NW,324,3.0,5.0,95,0.03,,,0.04,VWS V14.01,2013-01-01 07:50:00,
2013-01-01 01:52:00,54.9,53.2,30.00,NW,316,1.0,2.0,94,0.01,,,0.01,VWS V14.01,2013-01-01 07:52:00,
2013-01-01 01:55:00,55.1,53.7,29.99,NNE,18,2.0,4.0,95,0.03,,,0.04,VWS V14.01,2013-01-01 07:55:00,
2013-01-01 01:57:00,54.9,53.2,29.99,NNW,337,1.0,1.0,94,0.01,,,0.01,VWS V14.01,2013-01-01 07:57:00,
2013-01-01 02:00:00,55.0,53.6,29.99,North,352,4.0,5.0,95,0.03,,,0.04,VWS V14.01,2013-01-01 08:00:00,
2013-01-01 02:02:00,54.9,53.2,29.98,NNE,24,2.0,3.0,94,0.01,,,0.01,VWS V14.01,2013-01-01 08:02:00,
2013-01-01 02:05:00,54.9,53.5,30.00,North,6,7.0,10.0,95,0.03,,,0.04,VWS V14.01,2013-01-01 08:05:00,
2013-01-01 02:07:00,54.9,53.2,29.99,NE,42,1.0,2.0,94,0.01,,,0.01,VWS V14.01,2013-01-01 08:07:00,
2013-01-01 02:10:00,54.6,52.9,29.99,North,352,11.0,13.0,94,0.03,,,0.04,VWS V14.01,2013-01-01 08:10:00,
2013-01-01 02:12:00,54.8,53.1,29.99,ENE,64,0.0,2.0,94,0.01,,,0.01,VWS V14.01,2013-01-01 08:12:00,
2013-01-01 02:15:00,54.2,52.5,29.99,North,5,10.0,14.0,94,0.03,,,0.04,VWS V14.01,2013-01-01 08:15:00,
2013-01-01 02:17:00,54.8,53.1,29.98,ENE,64,2.0,2.0,94,0.00,,,0.01,VWS V14.01,2013-01-01 08:17:00,
2013-01-01 02:20:00,53.9,52.2,30.01,North,11,5.0,11.0,94,0.03,,,0.04,VWS V14.01,2013-01-01 08:20:00,
2013-01-01 02:22:00,54.8,53.1,29.98,ESE,106,2.0,4.0,94,0.00,,,0.01,VWS V14.01,2013-01-01 08:22:00,
2013-01-01 02:25:00,53.7,52.0,30.01,North,355,4.0,8.0,94,0.03,,,0.04,VWS V14.01,2013-01-01 08:25:00,
2013-01-01 02:27:00,54.8,53.1,29.98,ENE,60,1.0,2.0,94,0.00,,,0.01,VWS V14.01,2013-01-01 08:27:00,
2013-01-01 02:30:00,53.4,51.7,30.04,North,354,9.0,14.0,94,0.03,,,0.04,VWS V14.01,2013-01-01 08:30:00,
2013-01-01 02:32:00,54.8,53.4,29.98,NE,43,0.0,1.0,95,0.00,,,0.01,VWS V14.01,2013-01-01 08:32:00,
2013-01-01 02:35:00,53.2,51.5,30.05,North,355,11.0,14.0,94,0.03,,,0.04,VWS V14.01,2013-01-01 08:35:00,
2013-01-01 02:37:00,54.9,53.5,29.99,NNE,25,1.0,4.0,95,0.00,,,0.01,VWS V14.01,2013-01-01 08:37:00,
2013-01-01 02:40:00,52.8,50.8,30.03,North,11,10.0,12.0,93,0.06,,,0.07,VWS V14.01,2013-01-01 08:40:00,
2013-01-01 02:42:00,55.0,53.6,29.99,NNE,13,2.0,4.0,95,0.02,,,0.03,VWS V14.01,2013-01-01 08:42:00,
2013-01-01 02:45:00,52.3,50.3,30.04,NNE,19,5.0,11.0,93,0.09,,,0.10,VWS V14.01,2013-01-01 08:45:00,
2013-01-01 02:47:00,55.1,53.7,30.00,NNW,340,3.0,5.0,95,0.03,,,0.04,VWS V14.01,2013-01-01 08:47:00,
2013-01-01 02:50:00,52.1,50.1,30.04,NNW,331,9.0,10.0,93,0.07,,,0.11,VWS V14.01,2013-01-01 08:50:00,
2013-01-01 02:52:00,55.1,53.7,30.00,NNW,329,3.0,4.0,95,0.03,,,0.04,VWS V14.01,2013-01-01 08:52:00,
2013-01-01 02:55:00,51.9,49.9,30.04,NNE,16,7.0,12.0,93,0.07,,,0.11,VWS V14.01,2013-01-01 08:55:00,
2013-01-01 02:57:00,55.0,53.6,29.99,NNE,12,3.0,5.0,95,0.03,,,0.04,VWS V14.01,2013-01-01 08:57:00,
2013-01-01 03:00:00,51.8,49.8,30.04,NNE,16,8.0,11.0,93,0.07,,,0.11,VWS V14.01,2013-01-01 09:00:00,
2013-01-01 03:02:00,54.9,53.5,29.99,NNE,18,4.0,6.0,95,0.03,,,0.04,VWS V14.01,2013-01-01 09:02:00,
2013-01-01 03:05:00,51.7,49.8,30.04,North,349,10.0,12.0,93,0.07,,,0.11,VWS V14.01,2013-01-01 09:05:00,
2013-01-01 03:07:00,54.7,53.0,30.00,NNW,345,10.0,10.0,94,0.03,,,0.04,VWS V14.01,2013-01-01 09:07:00,
2013-01-01 03:10:00,51.6,49.7,30.06,North,5,7.0,10.0,93,0.07,,,0.11,VWS V14.01,2013-01-01 09:10:00,
2013-01-01 03:12:00,54.5,52.8,29.99,NNE,12,7.0,11.0,94,0.03,,,0.04,VWS V14.01,2013-01-01 09:12:00,
2013-01-01 03:15:00,51.5,49.5,30.04,North,11,7.0,10.0,93,0.07,,,0.11,VWS V14.01,2013-01-01 09:15:00,
2013-01-01 03:17:00,54.1,52.4,30.00,North,1,8.0,11.0,94,0.03,,,0.04,VWS V14.01,2013-01-01 09:17:00,
2013-01-01 03:20:00,51.1,49.2,30.04,North,357,6.0,10.0,93,0.07,,,0.11,VWS V14.01,2013-01-01 09:20:00,
2013-01-01 03:22:00,53.8,52.1,30.01,NNE,18,7.0,8.0,94,0.03,,,0.04,VWS V14.01,2013-01-01 09:22:00,
2013-01-01 03:25:00,50.8,48.8,30.04,North,352,6.0,12.0,93,0.07,,,0.11,VWS V14.01,2013-01-01 09:25:00,
2013-01-01 03:27:00,53.6,51.9,30.02,NNW,334,7.0,14.0,94,0.03,,,0.04,VWS V14.01,2013-01-01 09:27:00,
2013-01-01 03:30:00,50.6,48.7,30.04,North,355,4.0,10.0,93,0.07,,,0.11,VWS V14.01,2013-01-01 09:30:00,
2013-01-01 03:32:00,53.3,51.6,30.05,NW,317,12.0,12.0,94,0.03,,,0.04,VWS V14.01,2013-01-01 09:32:00,
2013-01-01 03:35:00,50.4,48.5,30.03,North,9,5.0,7.0,93,0.07,,,0.11,VWS V14.01,2013-01-01 09:35:00,
2013-01-01 03:37:00,53.0,51.0,30.04,NNE,19,7.0,12.0,93,0.04,,,0.05,VWS V14.01,2013-01-01 09:37:00,
2013-01-01 03:40:00,50.3,48.4,30.03,NE,51,6.0,9.0,93,0.07,,,0.11,VWS V14.01,2013-01-01 09:40:00,
2013-01-01 03:42:00,52.5,50.5,30.03,North,8,10.0,11.0,93,0.09,,,0.10,VWS V14.01,2013-01-01 09:42:00,
2013-01-01 03:45:00,50.1,48.2,30.03,NE,48,4.0,7.0,93,0.04,,,0.11,VWS V14.01,2013-01-01 09:45:00,
2013-01-01 03:47:00,52.2,50.2,30.04,NNE,20,7.0,8.0,93,0.06,,,0.10,VWS V14.01,2013-01-01 09:47:00,
2013-01-01 03:50:00,49.9,47.7,30.04,NNE,33,6.0,9.0,92,0.01,,,0.11,VWS V14.01,2013-01-01 09:50:00,
2013-01-01 03:52:00,52.0,50.0,30.04,North,358,8.0,11.0,93,0.07,,,0.11,VWS V14.01,2013-01-01 09:52:00,
2013-01-01 03:55:00,49.7,47.5,30.04,NNE,28,4.0,8.0,92,0.00,,,0.11,VWS V14.01,2013-01-01 09:55:00,
2013-01-01 03:57:00,51.8,49.8,30.04,NNE,18,10.0,11.0,93,0.07,,,0.11,VWS V14.01,2013-01-01 09:57:00,
2013-01-01 04:00:00,49.5,47.3,30.04,NE,38,8.0,14.0,92,0.00,,,0.11,VWS V14.01,2013-01-01 10:00:00,
2013-01-01 04:02:00,51.8,49.8,30.04,North,358,9.0,10.0,93,0.07,,,0.11,VWS V14.01,2013-01-01 10:02:00,
2013-01-01 04:05:00,49.3,47.1,30.05,NE,46,6.0,10.0,92,0.00,,,0.11,VWS V14.01,2013-01-01 10:05:00,
2013-01-01 04:07:00,51.7,49.8,30.05,NNW,340,7.0,10.0,93,0.07,,,0.11,VWS V14.01,2013-01-01 10:07:00,
2013-01-01 04:10:00,49.2,47.0,30.05,NNE,32,4.0,9.0,92,0.00,,,0.11,VWS V14.01,2013-01-01 10:10:00,
2013-01-01 04:12:00,51.6,49.7,30.05,North,358,7.0,8.0,93,0.07,,,0.11,VWS V14.01,2013-01-01 10:12:00,
2013-01-01 04:15:00,49.1,46.9,30.06,North,4,11.0,11.0,92,0.00,,,0.11,VWS V14.01,2013-01-01 10:15:00,
2013-01-01 04:17:00,51.3,49.3,30.04,North,11,7.0,10.0,93,0.07,,,0.11,VWS V14.01,2013-01-01 10:17:00,
2013-01-01 04:20:00,49.1,46.9,30.06,North,11,8.0,12.0,92,0.00,,,0.11,VWS V14.01,2013-01-01 10:20:00,
2013-01-01 04:22:00,50.9,49.0,30.03,NNW,338,8.0,10.0,93,0.07,,,0.11,VWS V14.01,2013-01-01 10:22:00,
2013-01-01 04:25:00,49.1,46.9,30.06,NNE,30,9.0,11.0,92,0.00,,,0.11,VWS V14.01,2013-01-01 10:25:00,
2013-01-01 04:27:00,50.6,48.7,30.04,NNW,342,8.0,9.0,93,0.07,,,0.11,VWS V14.01,2013-01-01 10:27:00,
2013-01-01 04:30:00,49.1,46.9,30.06,North,352,3.0,10.0,92,0.00,,,0.11,VWS V14.01,2013-01-01 10:30:00,
2013-01-01 04:32:00,50.5,48.6,30.04,NNW,336,3.0,7.0,93,0.07,,,0.11,VWS V14.01,2013-01-01 10:32:00,
2013-01-01 04:35:00,49.0,46.8,30.07,NNW,344,6.0,12.0,92,0.00,,,0.11,VWS V14.01,2013-01-01 10:35:00,
2013-01-01 04:37:00,50.3,48.4,30.03,NNE,32,3.0,9.0,93,0.07,,,0.11,VWS V14.01,2013-01-01 10:37:00,
2013-01-01 04:40:00,49.0,46.8,30.08,NNW,335,7.0,9.0,92,0.00,,,0.11,VWS V14.01,2013-01-01 10:40:00,
2013-01-01 04:42:00,50.3,48.4,30.04,ENE,74,6.0,7.0,93,0.04,,,0.11,VWS V14.01,2013-01-01 10:42:00,
2013-01-01 04:45:00,48.9,46.7,30.07,NNW,343,9.0,15.0,92,0.00,,,0.11,VWS V14.01,2013-01-01 10:45:00,
2013-01-01 04:47:00,50.1,47.9,30.03,NE,36,4.0,9.0,92,0.01,,,0.11,VWS V14.01,2013-01-01 10:47:00,
2013-01-01 04:50:00,48.8,46.6,30.06,North,2,6.0,13.0,92,0.00,,,0.11,VWS V14.01,2013-01-01 10:50:00,
2013-01-01 04:52:00,49.8,47.6,30.04,NNE,31,4.0,8.0,92,0.00,,,0.11,VWS V14.01,2013-01-01 10:52:00,
2013-01-01 04:55:00,48.7,46.5,30.06,NNE,29,6.0,13.0,92,0.00,,,0.11,VWS V14.01,2013-01-01 10:55:00,
2013-01-01 04:57:00,49.6,47.4,30.03,NNE,32,6.0,9.0,92,0.00,,,0.11,VWS V14.01,2013-01-01 10:57:00,
2013-01-01 05:00:00,48.6,46.4,30.07,North,8,5.0,12.0,92,0.00,,,0.11,VWS V14.01,2013-01-01 11:00:00,
2013-01-01 05:02:00,49.4,47.2,30.05,ENE,67,5.0,10.0,92,0.00,,,0.11,VWS V14.01,2013-01-01 11:02:00,
2013-01-01 05:05:00,48.5,46.3,30.06,North,11,6.0,12.0,92,0.00,,,0.11,VWS V14.01,2013-01-01 11:05:00,
2013-01-01 05:07:00,49.2,47.0,30.05,NNE,16,4.0,8.0,92,0.00,,,0.11,VWS V14.01,2013-01-01 11:07:00,
2013-01-01 05:10:00,48.5,46.3,30.06,North,9,13.0,13.0,92,0.00,,,0.11,VWS V14.01,2013-01-01 11:10:00,
2013-01-01 05:12:00,49.1,46.9,30.05,NNE,16,8.0,11.0,92,0.00,,,0.11,VWS V14.01,2013-01-01 11:12:00,
2013-01-01 05:15:00,48.5,46.3,30.07,NE,46,2.0,13.0,92,0.00,,,0.11,VWS V14.01,2013-01-01 11:15:00,
2013-01-01 05:17:00,49.1,46.9,30.06,North,5,7.0,12.0,92,0.00,,,0.11,VWS V14.01,2013-01-01 11:17:00,
2013-01-01 05:20:00,48.4,46.2,30.06,NNE,18,5.0,8.0,92,0.00,,,0.11,VWS V14.01,2013-01-01 11:20:00,
2013-01-01 05:22:00,49.1,46.9,30.06,North,6,5.0,9.0,92,0.00,,,0.11,VWS V14.01,2013-01-01 11:22:00,
2013-01-01 05:25:00,48.4,46.2,30.07,North,8,7.0,11.0,92,0.00,,,0.11,VWS V14.01,2013-01-01 11:25:00,
2013-01-01 05:27:00,49.1,46.9,30.06,NNE,30,4.0,10.0,92,0.00,,,0.11,VWS V14.01,2013-01-01 11:27:00,
2013-01-01 05:30:00,48.4,46.2,30.08,NNW,348,9.0,10.0,92,0.00,,,0.11,VWS V14.01,2013-01-01 11:30:00,
2013-01-01 05:32:00,49.0,46.8,30.06,North,360,3.0,10.0,92,0.00,,,0.11,VWS V14.01,2013-01-01 11:32:00,
2013-01-01 05:35:00,48.4,46.2,30.08,North,11,5.0,14.0,92,0.00,,,0.11,VWS V14.01,2013-01-01 11:35:00,
2013-01-01 05:37:00,49.0,46.8,30.07,North,360,5.0,7.0,92,0.00,,,0.11,VWS V14.01,2013-01-01 11:37:00,
2013-01-01 05:40:00,48.3,46.1,30.08,NNE,26,6.0,13.0,92,0.00,,,0.11,VWS V14.01,2013-01-01 11:40:00,
2013-01-01 05:42:00,48.9,46.7,30.08,North,359,10.0,15.0,92,0.00,,,0.11,VWS V14.01,2013-01-01 11:42:00,
2013-01-01 05:45:00,48.2,45.7,30.08,NNE,28,4.0,11.0,91,0.00,,,0.11,VWS V14.01,2013-01-01 11:45:00,
2013-01-01 05:47:00,48.8,46.6,30.07,North,354,13.0,13.0,92,0.00,,,0.11,VWS V14.01,2013-01-01 11:47:00,
2013-01-01 05:50:00,48.1,45.6,30.08,North,8,7.0,9.0,91,0.00,,,0.11,VWS V14.01,2013-01-01 11:50:00,
2013-01-01 05:52:00,48.7,46.5,30.06,North,352,9.0,11.0,92,0.00,,,0.11,VWS V14.01,2013-01-01 11:52:00,
2013-01-01 05:55:00,48.0,45.5,30.09,NNW,338,4.0,9.0,91,0.00,,,0.11,VWS V14.01,2013-01-01 11:55:00,
2013-01-01 05:57:00,48.6,46.4,30.06,North,11,9.0,11.0,92,0.00,,,0.11,VWS V14.01,2013-01-01 11:57:00,
2013-01-01 06:00:00,47.9,45.4,30.09,North,360,9.0,11.0,91,0.00,,,0.11,VWS V14.01,2013-01-01 12:00:00,
2013-01-01 06:02:00,48.6,46.4,30.07,North,2,4.0,7.0,92,0.00,,,0.11,VWS V14.01,2013-01-01 12:02:00,
2013-01-01 06:05:00,47.7,45.2,30.09,North,4,9.0,13.0,91,0.00,,,0.11,VWS V14.01,2013-01-01 12:05:00,
2013-01-01 06:07:00,48.5,46.3,30.06,NNE,18,5.0,8.0,92,0.00,,,0.11,VWS V14.01,2013-01-01 12:07:00,
2013-01-01 06:10:00,47.5,45.0,30.10,NNW,330,8.0,18.0,91,0.00,,,0.11,VWS V14.01,2013-01-01 12:10:00,
2013-01-01 06:12:00,48.5,46.3,30.06,NNE,16,8.0,13.0,92,0.00,,,0.11,VWS V14.01,2013-01-01 12:12:00,
2013-01-01 06:15:00,47.3,44.8,30.11,NNE,25,5.0,12.0,91,0.00,,,0.11,VWS V14.01,2013-01-01 12:15:00,
2013-01-01 06:17:00,48.5,46.3,30.07,NE,36,4.0,8.0,92,0.00,,,0.11,VWS V14.01,2013-01-01 12:17:00,
2013-01-01 06:20:00,47.1,44.6,30.11,North,1,3.0,7.0,91,0.00,,,0.11,VWS V14.01,2013-01-01 12:20:00,
2013-01-01 06:22:00,48.4,46.2,30.07,North,355,7.0,8.0,92,0.00,,,0.11,VWS V14.01,2013-01-01 12:22:00,
2013-01-01 06:25:00,47.0,44.5,30.11,North,4,8.0,10.0,91,0.00,,,0.11,VWS V14.01,2013-01-01 12:25:00,
2013-01-01 06:27:00,48.4,46.2,30.07,NNW,343,6.0,7.0,92,0.00,,,0.11,VWS V14.01,2013-01-01 12:27:00,
2013-01-01 06:30:00,46.9,44.4,30.11,NNE,16,3.0,10.0,91,0.00,,,0.11,VWS V14.01,2013-01-01 12:30:00,
2013-01-01 06:32:00,48.3,46.1,30.08,North,360,8.0,14.0,92,0.00,,,0.11,VWS V14.01,2013-01-01 12:32:00,
2013-01-01 06:35:00,46.8,44.3,30.12,NNE,18,2.0,7.0,91,0.00,,,0.11,VWS V14.01,2013-01-01 12:35:00,
2013-01-01 06:37:00,48.4,46.2,30.08,NE,36,4.0,12.0,92,0.00,,,0.11,VWS V14.01,2013-01-01 12:37:00,
2013-01-01 06:40:00,46.7,44.2,30.11,NNE,16,5.0,10.0,91,0.00,,,0.11,VWS V14.01,2013-01-01 12:40:00,
2013-01-01 06:42:00,48.3,45.8,30.08,NE,40,6.0,10.0,91,0.00,,,0.11,VWS V14.01,2013-01-01 12:42:00,
2013-01-01 06:45:00,46.5,44.0,30.11,NNE,29,4.0,10.0,91,0.00,,,0.11,VWS V14.01,2013-01-01 12:45:00,
2013-01-01 06:47:00,48.2,45.7,30.08,NNE,16,4.0,5.0,91,0.00,,,0.11,VWS V14.01,2013-01-01 12:47:00,
2013-01-01 06:50:00,46.4,43.9,30.11,North,5,5.0,9.0,91,0.00,,,0.11,VWS V14.01,2013-01-01 12:50:00,
2013-01-01 06:52:00,48.0,45.5,30.08,North,352,3.0,8.0,91,0.00,,,0.11,VWS V14.01,2013-01-01 12:52:00,
2013-01-01 06:55:00,46.3,43.8,30.11,NNE,30,3.0,6.0,91,0.00,,,0.11,VWS V14.01,2013-01-01 12:55:00,
2013-01-01 06:57:00,48.0,45.5,30.09,NNE,16,5.0,5.0,91,0.00,,,0.11,VWS V14.01,2013-01-01 12:57:00,
2013-01-01 07:00:00,46.2,43.7,30.12,NNE,18,7.0,11.0,91,0.00,,,0.11,VWS V14.01,2013-01-01 13:00:00,
2013-01-01 07:02:00,47.8,45.3,30.09,North,4,6.0,13.0,91,0.00,,,0.11,VWS V14.01,2013-01-01 13:02:00,
2013-01-01 07:05:00,46.2,43.7,30.13,North,4,8.0,10.0,91,0.00,,,0.11,VWS V14.01,2013-01-01 13:05:00,
2013-01-01 07:07:00,47.6,44.8,30.09,North,8,13.0,18.0,90,0.00,,,0.11,VWS V14.01,2013-01-01 13:07:00,
2013-01-01 07:10:00,46.2,43.7,30.14,NNE,18,6.0,10.0,91,0.00,,,0.11,VWS V14.01,2013-01-01 13:10:00,
2013-01-01 07:12:00,47.4,44.9,30.10,North,8,5.0,12.0,91,0.00,,,0.11,VWS V14.01,2013-01-01 13:12:00,
2013-01-01 07:15:00,46.2,43.7,30.14,North,355,10.0,10.0,91,0.00,,,0.11,VWS V14.01,2013-01-01 13:15:00,
2013-01-01 07:17:00,47.2,44.7,30.12,NNE,25,4.0,7.0,91,0.00,,,0.11,VWS V14.01,2013-01-01 13:17:00,
2013-01-01 07:20:00,46.2,43.7,30.14,NNE,16,6.0,11.0,91,0.00,,,0.11,VWS V14.01,2013-01-01 13:20:00,
2013-01-01 07:22:00,47.1,44.6,30.10,NNE,21,6.0,7.0,91,0.00,,,0.11,VWS V14.01,2013-01-01 13:22:00,
2013-01-01 07:25:00,46.2,43.4,30.14,NNE,20,5.0,8.0,90,0.00,,,0.11,VWS V14.01,2013-01-01 13:25:00,
2013-01-01 07:27:00,46.9,44.4,30.11,NNE,30,5.0,10.0,91,0.00,,,0.11,VWS V14.01,2013-01-01 13:27:00,
2013-01-01 07:30:00,46.3,43.5,30.15,North,9,3.0,9.0,90,0.00,,,0.11,VWS V14.01,2013-01-01 13:30:00,
2013-01-01 07:32:00,46.9,44.4,30.12,NNE,15,3.0,6.0,91,0.00,,,0.11,VWS V14.01,2013-01-01 13:32:00,
2013-01-01 07:35:00,46.4,43.6,30.14,North,354,4.0,9.0,90,0.00,,,0.11,VWS V14.01,2013-01-01 13:35:00,
2013-01-01 07:37:00,46.8,44.3,30.11,North,354,6.0,9.0,91,0.00,,,0.11,VWS V14.01,2013-01-01 13:37:00,
2013-01-01 07:40:00,46.4,43.6,30.14,NNE,16,10.0,11.0,90,0.00,,,0.11,VWS V14.01,2013-01-01 13:40:00,
2013-01-01 07:42:00,46.6,44.1,30.11,North,11,9.0,9.0,91,0.00,,,0.11,VWS V14.01,2013-01-01 13:42:00,
2013-01-01 07:45:00,46.4,43.6,30.15,North,360,8.0,12.0,90,0.00,,,0.11,VWS V14.01,2013-01-01 13:45:00,
2013-01-01 07:47:00,46.5,44.0,30.11,NNE,19,8.0,8.0,91,0.00,,,0.11,VWS V14.01,2013-01-01 13:47:00,
2013-01-01 07:50:00,46.5,43.7,30.16,NNW,346,9.0,10.0,90,0.00,,,0.11,VWS V14.01,2013-01-01 13:50:00,
2013-01-01 07:52:00,46.3,43.8,30.11,NNE,15,3.0,6.0,91,0.00,,,0.11,VWS V14.01,2013-01-01 13:52:00,
2013-01-01 07:55:00,46.5,43.7,30.16,NNW,330,13.0,13.0,90,0.00,,,0.11,VWS V14.01,2013-01-01 13:55:00,
2013-01-01 07:57:00,46.3,43.8,30.12,NNE,16,7.0,11.0,91,0.00,,,0.11,VWS V14.01,2013-01-01 13:57:00,
2013-01-01 08:00:00,46.5,43.4,30.16,North,351,11.0,16.0,89,0.00,,,0.11,VWS V14.01,2013-01-01 14:00:00,
2013-01-01 08:02:00,46.3,43.8,30.12,NNE,16,5.0,8.0,91,0.00,,,0.11,VWS V14.01,2013-01-01 14:02:00,
2013-01-01 08:05:00,46.4,43.3,30.16,North,355,11.0,15.0,89,0.00,,,0.11,VWS V14.01,2013-01-01 14:05:00,
2013-01-01 08:07:00,46.2,43.7,30.14,NNE,14,7.0,9.0,91,0.00,,,0.11,VWS V14.01,2013-01-01 14:07:00,
2013-01-01 08:10:00,46.3,43.2,30.17,North,358,7.0,17.0,89,0.00,,,0.11,VWS V14.01,2013-01-01 14:10:00,
2013-01-01 08:12:00,46.2,43.7,30.14,North,9,6.0,8.0,91,0.00,,,0.11,VWS V14.01,2013-01-01 14:12:00,
2013-01-01 08:15:00,46.2,42.8,30.17,North,2,7.0,16.0,88,0.00,,,0.11,VWS V14.01,2013-01-01 14:15:00,
2013-01-01 08:17:00,46.2,43.7,30.14,North,359,9.0,11.0,91,0.00,,,0.11,VWS V14.01,2013-01-01 14:17:00,
2013-01-01 08:20:00,46.2,42.8,30.17,North,1,7.0,13.0,88,0.00,,,0.11,VWS V14.01,2013-01-01 14:20:00,
2013-01-01 08:22:00,46.2,43.7,30.14,North,1,4.0,8.0,91,0.00,,,0.11,VWS V14.01,2013-01-01 14:22:00,
2013-01-01 08:25:00,46.2,42.8,30.18,North,1,6.0,10.0,88,0.00,,,0.11,VWS V14.01,2013-01-01 14:25:00,
2013-01-01 08:27:00,46.3,43.5,30.15,North,360,6.0,9.0,90,0.00,,,0.11,VWS V14.01,2013-01-01 14:27:00,
2013-01-01 08:30:00,46.2,42.8,30.17,North,2,4.0,12.0,88,0.00,,,0.11,VWS V14.01,2013-01-01 14:30:00,
2013-01-01 08:32:00,46.4,43.6,30.15,NNW,348,9.0,9.0,90,0.00,,,0.11,VWS V14.01,2013-01-01 14:32:00,
2013-01-01 08:35:00,46.1,42.8,30.17,North,354,10.0,11.0,88,0.00,,,0.11,VWS V14.01,2013-01-01 14:35:00,
2013-01-01 08:37:00,46.4,43.6,30.15,North,354,8.0,11.0,90,0.00,,,0.11,VWS V14.01,2013-01-01 14:37:00,
2013-01-01 08:40:00,46.1,42.8,30.18,North,357,7.0,11.0,88,0.00,,,0.11,VWS V14.01,2013-01-01 14:40:00,
2013-01-01 08:42:00,46.4,43.6,30.14,North,358,10.0,12.0,90,0.00,,,0.11,VWS V14.01,2013-01-01 14:42:00,
2013-01-01 08:45:00,46.2,42.8,30.18,North,358,5.0,8.0,88,0.00,,,0.11,VWS V14.01,2013-01-01 14:45:00,
2013-01-01 08:47:00,46.4,43.6,30.16,NNW,345,5.0,9.0,90,0.00,,,0.11,VWS V14.01,2013-01-01 14:47:00,
2013-01-01 08:50:00,46.2,42.8,30.18,North,360,9.0,12.0,88,0.00,,,0.11,VWS V14.01,2013-01-01 14:50:00,
2013-01-01 08:52:00,46.5,43.7,30.15,North,357,7.0,10.0,90,0.00,,,0.11,VWS V14.01,2013-01-01 14:52:00,
2013-01-01 08:55:00,46.3,42.7,30.19,North,1,5.0,11.0,87,0.00,,,0.11,VWS V14.01,2013-01-01 14:55:00,
2013-01-01 08:57:00,46.5,43.7,30.16,NNW,344,10.0,16.0,90,0.00,,,0.11,VWS V14.01,2013-01-01 14:57:00,
2013-01-01 09:00:00,46.3,42.7,30.20,North,2,9.0,15.0,87,0.00,,,0.11,VWS V14.01,2013-01-01 15:00:00,
2013-01-01 09:02:00,46.4,43.3,30.16,North,1,10.0,14.0,89,0.00,,,0.11,VWS V14.01,2013-01-01 15:02:00,
2013-01-01 09:05:00,46.5,42.8,30.20,North,2,5.0,12.0,87,0.00,,,0.11,VWS V14.01,2013-01-01 15:05:00,
2013-01-01 09:07:00,46.4,43.3,30.17,NNW,345,15.0,17.0,89,0.00,,,0.11,VWS V14.01,2013-01-01 15:07:00,
2013-01-01 09:10:00,46.5,42.8,30.20,North,8,7.0,12.0,87,0.00,,,0.11,VWS V14.01,2013-01-01 15:10:00,
2013-01-01 09:12:00,46.3,43.0,30.17,North,360,6.0,16.0,88,0.00,,,0.11,VWS V14.01,2013-01-01 15:12:00,
2013-01-01 09:15:00,46.6,42.9,30.20,North,1,8.0,13.0,87,0.00,,,0.11,VWS V14.01,2013-01-01 15:15:00,
2013-01-01 09:17:00,46.2,42.8,30.17,NNW,344,9.0,12.0,88,0.00,,,0.11,VWS V14.01,2013-01-01 15:17:00,
2013-01-01 09:20:00,46.7,43.0,30.20,North,2,9.0,12.0,87,0.00,,,0.11,VWS V14.01,2013-01-01 15:20:00,
2013-01-01 09:22:00,46.2,42.8,30.17,North,360,3.0,9.0,88,0.00,,,0.11,VWS V14.01,2013-01-01 15:22:00,
2013-01-01 09:25:00,46.6,42.9,30.20,North,360,9.0,12.0,87,0.00,,,0.11,VWS V14.01,2013-01-01 15:25:00,
2013-01-01 09:27:00,46.1,42.8,30.18,North,350,6.0,8.0,88,0.00,,,0.11,VWS V14.01,2013-01-01 15:27:00,
2013-01-01 09:30:00,46.5,42.8,30.20,NNW,347,8.0,14.0,87,0.00,,,0.11,VWS V14.01,2013-01-01 15:30:00,
2013-01-01 09:32:00,46.1,42.8,30.17,North,357,6.0,10.0,88,0.00,,,0.11,VWS V14.01,2013-01-01 15:32:00,
2013-01-01 09:35:00,46.4,42.8,30.20,North,356,10.0,12.0,87,0.00,,,0.11,VWS V14.01,2013-01-01 15:35:00,
2013-01-01 09:37:00,46.1,42.8,30.18,North,355,6.0,11.0,88,0.00,,,0.11,VWS V14.01,2013-01-01 15:37:00,
2013-01-01 09:40:00,46.4,42.8,30.19,North,352,6.0,16.0,87,0.00,,,0.11,VWS V14.01,2013-01-01 15:40:00,
2013-01-01 09:42:00,46.1,42.8,30.18,NNW,344,7.0,7.0,88,0.00,,,0.11,VWS V14.01,2013-01-01 15:42:00,
2013-01-01 09:45:00,46.4,42.8,30.20,NNE,18,8.0,14.0,87,0.00,,,0.11,VWS V14.01,2013-01-01 15:45:00,
2013-01-01 09:47:00,46.1,42.5,30.18,North,350,10.0,10.0,87,0.00,,,0.11,VWS V14.01,2013-01-01 15:47:00,
2013-01-01 09:50:00,46.3,42.3,30.20,North,8,9.0,15.0,86,0.00,,,0.11,VWS V14.01,2013-01-01 15:50:00,
2013-01-01 09:52:00,46.2,42.5,30.19,North,4,8.0,11.0,87,0.00,,,0.11,VWS V14.01,2013-01-01 15:52:00,
2013-01-01 09:55:00,46.4,42.5,30.20,North,2,9.0,13.0,86,0.00,,,0.11,VWS V14.01,2013-01-01 15:55:00,
2013-01-01 09:57:00,46.3,42.7,30.19,North,1,6.0,11.0,87,0.00,,,0.11,VWS V14.01,2013-01-01 15:57:00,
2013-01-01 10:00:00,46.6,42.6,30.20,North,357,8.0,16.0,86,0.00,,,0.11,VWS V14.01,2013-01-01 16:00:00,
2013-01-01 10:02:00,46.4,42.8,30.20,NNW,343,6.0,11.0,87,0.00,,,0.11,VWS V14.01,2013-01-01 16:02:00,
2013-01-01 10:05:00,47.3,43.3,30.20,North,6,8.0,12.0,86,0.00,,,0.11,VWS V14.01,2013-01-01 16:05:00,
2013-01-01 10:07:00,46.5,42.8,30.20,North,1,8.0,12.0,87,0.00,,,0.11,VWS V14.01,2013-01-01 16:07:00,
2013-01-01 10:10:00,48.2,43.9,30.20,NNW,342,6.0,11.0,85,0.00,,,0.11,VWS V14.01,2013-01-01 16:10:00,
2013-01-01 10:12:00,46.5,42.8,30.20,North,352,11.0,12.0,87,0.00,,,0.11,VWS V14.01,2013-01-01 16:12:00,
2013-01-01 10:15:00,48.4,43.8,30.20,NNW,343,5.0,11.0,84,0.00,,,0.11,VWS V14.01,2013-01-01 16:15:00,
2013-01-01 10:17:00,46.7,43.0,30.20,NNE,29,6.0,9.0,87,0.00,,,0.11,VWS V14.01,2013-01-01 16:17:00,
2013-01-01 10:20:00,48.2,43.3,30.20,NNW,344,12.0,16.0,83,0.00,,,0.11,VWS V14.01,2013-01-01 16:20:00,
2013-01-01 10:22:00,46.7,43.0,30.20,North,355,10.0,12.0,87,0.00,,,0.11,VWS V14.01,2013-01-01 16:22:00,
2013-01-01 10:25:00,47.8,43.2,30.20,NNW,333,10.0,16.0,84,0.00,,,0.11,VWS V14.01,2013-01-01 16:25:00,
2013-01-01 10:27:00,46.6,42.9,30.20,North,352,14.0,14.0,87,0.00,,,0.11,VWS V14.01,2013-01-01 16:27:00,
2013-01-01 10:30:00,47.2,43.2,30.20,NW,315,15.0,15.0,86,0.00,,,0.11,VWS V14.01,2013-01-01 16:30:00,
2013-01-01 10:32:00,46.5,42.8,30.20,NNE,14,8.0,11.0,87,0.00,,,0.11,VWS V14.01,2013-01-01 16:32:00,
2013-01-01 10:35:00,46.3,42.3,30.20,NW,323,13.0,17.0,86,0.00,,,0.11,VWS V14.01,2013-01-01 16:35:00,
2013-01-01 10:37:00,46.4,42.8,30.20,North,352,10.0,16.0,87,0.00,,,0.11,VWS V14.01,2013-01-01 16:37:00,
2013-01-01 10:40:00,45.6,41.7,30.20,NW,323,16.0,18.0,86,0.00,,,0.11,VWS V14.01,2013-01-01 16:40:00,
2013-01-01 10:42:00,46.4,42.8,30.19,North,350,8.0,11.0,87,0.00,,,0.11,VWS V14.01,2013-01-01 16:42:00,
2013-01-01 10:45:00,45.2,41.6,30.20,North,349,8.0,18.0,87,0.00,,,0.11,VWS V14.01,2013-01-01 16:45:00,
2013-01-01 10:47:00,46.3,42.3,30.20,North,8,9.0,11.0,86,0.00,,,0.11,VWS V14.01,2013-01-01 16:47:00,
2013-01-01 10:50:00,45.1,41.5,30.20,NNW,343,12.0,15.0,87,0.00,,,0.11,VWS V14.01,2013-01-01 16:50:00,
2013-01-01 10:52:00,46.3,42.3,30.20,North,359,7.0,11.0,86,0.00,,,0.11,VWS V14.01,2013-01-01 16:52:00,
2013-01-01 10:55:00,44.7,41.1,30.19,NNW,342,12.0,16.0,87,0.00,,,0.11,VWS V14.01,2013-01-01 16:55:00,
2013-01-01 10:56:00,46.4,42.5,30.20,NNE,27,10.0,16.0,86,0.00,,,0.11,VWS V14.01,2013-01-01 16:56:00,
2013-01-01 11:00:00,44.7,41.1,30.19,NNW,331,11.0,16.0,87,0.00,,,0.11,VWS V14.01,2013-01-01 17:00:00,
2013-01-01 11:01:00,46.8,42.8,30.20,North,357,6.0,9.0,86,0.00,,,0.11,VWS V14.01,2013-01-01 17:01:00,
2013-01-01 11:05:00,44.5,40.9,30.20,NNW,335,9.0,19.0,87,0.00,,,0.11,VWS V14.01,2013-01-01 17:05:00,
2013-01-01 11:06:00,47.5,43.2,30.20,North,359,7.0,9.0,85,0.00,,,0.11,VWS V14.01,2013-01-01 17:06:00,
2013-01-01 11:10:00,44.4,40.8,30.20,NNW,340,10.0,15.0,87,0.00,,,0.11,VWS V14.01,2013-01-01 17:10:00,
2013-01-01 11:11:00,48.4,44.1,30.20,North,9,9.0,11.0,85,0.00,,,0.11,VWS V14.01,2013-01-01 17:11:00,
2013-01-01 11:15:00,44.5,40.9,30.20,NW,318,12.0,14.0,87,0.00,,,0.11,VWS V14.01,2013-01-01 17:15:00,
2013-01-01 11:16:00,48.4,43.8,30.20,NNW,343,9.0,14.0,84,0.00,,,0.11,VWS V14.01,2013-01-01 17:16:00,
2013-01-01 11:20:00,44.6,41.0,30.20,NNW,344,9.0,14.0,87,0.00,,,0.11,VWS V14.01,2013-01-01 17:20:00,
2013-01-01 11:21:00,48.1,43.5,30.20,NNW,341,15.0,15.0,84,0.00,,,0.11,VWS V14.01,2013-01-01 17:21:00,
2013-01-01 11:25:00,44.6,40.7,30.20,NW,324,10.0,17.0,86,0.00,,,0.11,VWS V14.01,2013-01-01 17:25:00,
2013-01-01 11:26:00,47.7,43.1,30.20,WNW,300,8.0,15.0,84,0.00,,,0.11,VWS V14.01,2013-01-01 17:26:00,
2013-01-01 11:30:00,44.4,40.5,30.19,NNW,330,11.0,16.0,86,0.00,,,0.11,VWS V14.01,2013-01-01 17:30:00,
2013-01-01 11:31:00,46.9,42.9,30.20,NNW,331,10.0,15.0,86,0.00,,,0.11,VWS V14.01,2013-01-01 17:31:00,
2013-01-01 11:35:00,44.1,40.2,30.20,NNW,348,9.0,16.0,86,0.00,,,0.11,VWS V14.01,2013-01-01 17:35:00,
2013-01-01 11:36:00,46.1,42.2,30.20,NW,322,14.0,17.0,86,0.00,,,0.11,VWS V14.01,2013-01-01 17:36:00,
2013-01-01 11:40:00,44.3,40.4,30.19,NNW,340,6.0,12.0,86,0.00,,,0.11,VWS V14.01,2013-01-01 17:40:00,
2013-01-01 11:41:00,45.5,41.6,30.20,NNW,340,13.0,18.0,86,0.00,,,0.11,VWS V14.01,2013-01-01 17:41:00,
2013-01-01 11:45:00,44.2,40.0,30.19,North,352,11.0,14.0,85,0.00,,,0.11,VWS V14.01,2013-01-01 17:45:00,
2013-01-01 11:46:00,45.2,41.6,30.20,NNW,327,9.0,15.0,87,0.00,,,0.11,VWS V14.01,2013-01-01 17:46:00,
2013-01-01 11:50:00,44.1,40.2,30.19,NNW,329,13.0,14.0,86,0.00,,,0.11,VWS V14.01,2013-01-01 17:50:00,
2013-01-01 11:51:00,44.9,41.3,30.20,North,351,12.0,15.0,87,0.00,,,0.11,VWS V14.01,2013-01-01 17:51:00,
2013-01-01 11:55:00,44.1,40.2,30.19,NNW,330,11.0,14.0,86,0.00,,,0.11,VWS V14.01,2013-01-01 17:55:00,
2013-01-01 11:56:00,44.7,41.1,30.19,NNW,343,11.0,16.0,87,0.00,,,0.11,VWS V14.01,2013-01-01 17:56:00,
2013-01-01 12:00:00,44.3,40.4,30.19,NNW,337,13.0,15.0,86,0.00,,,0.11,VWS V14.01,2013-01-01 18:00:00,
2013-01-01 12:01:00,44.6,41.0,30.19,NNW,340,18.0,18.0,87,0.00,,,0.11,VWS V14.01,2013-01-01 18:01:00,
2013-01-01 12:05:00,44.3,40.1,30.19,North,354,8.0,14.0,85,0.00,,,0.11,VWS V14.01,2013-01-01 18:05:00,
2013-01-01 12:06:00,44.5,40.9,30.20,NNW,343,8.0,15.0,87,0.00,,,0.11,VWS V14.01,2013-01-01 18:06:00,
2013-01-01 12:10:00,44.3,40.1,30.18,NNW,347,9.0,14.0,85,0.00,,,0.11,VWS V14.01,2013-01-01 18:10:00,
2013-01-01 12:11:00,44.4,40.8,30.20,NW,326,8.0,14.0,87,0.00,,,0.11,VWS V14.01,2013-01-01 18:11:00,
2013-01-01 12:15:00,44.3,40.1,30.18,NNW,331,6.0,13.0,85,0.00,,,0.11,VWS V14.01,2013-01-01 18:15:00,
2013-01-01 12:16:00,44.5,40.9,30.20,NNW,337,6.0,14.0,87,0.00,,,0.11,VWS V14.01,2013-01-01 18:16:00,
2013-01-01 12:20:00,44.5,40.0,30.17,NNW,345,3.0,13.0,84,0.00,,,0.11,VWS V14.01,2013-01-01 18:20:00,
2013-01-01 12:21:00,44.7,41.1,30.20,NW,313,11.0,17.0,87,0.00,,,0.11,VWS V14.01,2013-01-01 18:21:00,
2013-01-01 12:25:00,44.6,40.1,30.17,NNW,336,11.0,12.0,84,0.00,,,0.11,VWS V14.01,2013-01-01 18:25:00,
2013-01-01 12:26:00,44.5,40.6,30.20,NW,319,11.0,13.0,86,0.00,,,0.11,VWS V14.01,2013-01-01 18:26:00,
2013-01-01 12:30:00,44.9,40.4,30.18,NW,326,13.0,15.0,84,0.00,,,0.11,VWS V14.01,2013-01-01 18:30:00,
2013-01-01 12:31:00,44.3,40.4,30.19,NNW,337,15.0,15.0,86,0.00,,,0.11,VWS V14.01,2013-01-01 18:31:00,
2013-01-01 12:35:00,45.1,40.3,30.17,NW,326,10.0,15.0,83,0.00,,,0.11,VWS V14.01,2013-01-01 18:35:00,
2013-01-01 12:36:00,44.2,40.3,30.20,North,357,7.0,12.0,86,0.00,,,0.11,VWS V14.01,2013-01-01 18:36:00,
2013-01-01 12:40:00,45.1,40.3,30.17,NNW,329,6.0,15.0,83,0.00,,,0.11,VWS V14.01,2013-01-01 18:40:00,
2013-01-01 12:41:00,44.4,40.5,30.19,NNW,335,7.0,9.0,86,0.00,,,0.11,VWS V14.01,2013-01-01 18:41:00,
2013-01-01 12:45:00,45.3,40.5,30.17,WNW,290,6.0,13.0,83,0.00,,,0.11,VWS V14.01,2013-01-01 18:45:00,
2013-01-01 12:46:00,44.2,40.3,30.19,NNW,336,6.0,14.0,86,0.00,,,0.11,VWS V14.01,2013-01-01 18:46:00,
2013-01-01 12:50:00,45.6,40.7,30.17,NW,326,10.0,12.0,83,0.00,,,0.11,VWS V14.01,2013-01-01 18:50:00,
2013-01-01 12:51:00,44.1,39.9,30.19,NNW,328,10.0,13.0,85,0.00,,,0.11,VWS V14.01,2013-01-01 18:51:00,
2013-01-01 12:55:00,46.1,41.5,30.16,NW,319,8.0,13.0,84,0.00,,,0.11,VWS V14.01,2013-01-01 18:55:00,
2013-01-01 12:56:00,44.1,39.9,30.19,NW,318,10.0,15.0,85,0.00,,,0.11,VWS V14.01,2013-01-01 18:56:00,
2013-01-01 13:00:00,46.4,41.2,30.16,NNW,330,7.0,10.0,82,0.00,,,0.11,VWS V14.01,2013-01-01 19:00:00,
2013-01-01 13:01:00,44.3,40.1,30.19,NNW,331,6.0,13.0,85,0.00,,,0.11,VWS V14.01,2013-01-01 19:01:00,
2013-01-01 13:05:00,46.4,40.9,30.16,North,350,5.0,11.0,81,0.00,,,0.11,VWS V14.01,2013-01-01 19:05:00,
2013-01-01 13:06:00,44.3,40.1,30.18,NW,325,7.0,10.0,85,0.00,,,0.11,VWS V14.01,2013-01-01 19:06:00,
2013-01-01 13:10:00,46.8,41.0,30.16,NW,320,9.0,13.0,80,0.00,,,0.11,VWS V14.01,2013-01-01 19:10:00,
2013-01-01 13:11:00,44.3,39.8,30.18,NNW,336,11.0,13.0,84,0.00,,,0.11,VWS V14.01,2013-01-01 19:11:00,
2013-01-01 13:15:00,47.0,41.2,30.16,NNW,328,6.0,13.0,80,0.00,,,0.11,VWS V14.01,2013-01-01 19:15:00,
2013-01-01 13:16:00,44.4,40.2,30.18,NW,318,12.0,12.0,85,0.00,,,0.11,VWS V14.01,2013-01-01 19:16:00,
2013-01-01 13:20:00,47.3,41.1,30.16,North,5,3.0,10.0,79,0.00,,,0.11,VWS V14.01,2013-01-01 19:20:00,
2013-01-01 13:21:00,44.6,40.4,30.17,NW,314,6.0,11.0,85,0.00,,,0.11,VWS V14.01,2013-01-01 19:21:00,
2013-01-01 13:25:00,47.9,41.7,30.16,NNW,345,8.0,10.0,79,0.00,,,0.11,VWS V14.01,2013-01-01 19:25:00,
2013-01-01 13:26:00,44.7,40.2,30.17,NNW,341,6.0,15.0,84,0.00,,,0.11,VWS V14.01,2013-01-01 19:26:00,
2013-01-01 13:30:00,48.1,41.2,30.16,NNW,332,4.0,11.0,77,0.00,,,0.11,VWS V14.01,2013-01-01 19:30:00,
2013-01-01 13:31:00,45.0,40.5,30.18,NW,319,8.0,15.0,84,0.00,,,0.11,VWS V14.01,2013-01-01 19:31:00,
2013-01-01 13:35:00,48.4,41.2,30.15,NNW,337,5.0,12.0,76,0.00,,,0.11,VWS V14.01,2013-01-01 19:35:00,
2013-01-01 13:36:00,45.1,40.2,30.17,NW,311,11.0,12.0,83,0.00,,,0.11,VWS V14.01,2013-01-01 19:36:00,
2013-01-01 13:40:00,48.1,41.2,30.15,WNW,301,7.0,12.0,77,0.00,,,0.11,VWS V14.01,2013-01-01 19:40:00,
2013-01-01 13:41:00,45.2,40.3,30.17,North,356,8.0,10.0,83,0.00,,,0.11,VWS V14.01,2013-01-01 19:41:00,
2013-01-01 13:45:00,48.0,41.2,30.16,NW,322,6.0,12.0,77,0.00,,,0.11,VWS V14.01,2013-01-01 19:45:00,
2013-01-01 13:46:00,45.4,40.5,30.17,NW,323,9.0,11.0,83,0.00,,,0.11,VWS V14.01,2013-01-01 19:46:00,
2013-01-01 13:50:00,48.4,41.2,30.16,NNW,341,6.0,15.0,76,0.00,,,0.11,VWS V14.01,2013-01-01 19:50:00,
2013-01-01 13:51:00,45.6,40.4,30.17,NNW,341,8.0,13.0,82,0.00,,,0.11,VWS V14.01,2013-01-01 19:51:00,
2013-01-01 13:55:00,48.6,41.4,30.16,North,350,11.0,13.0,76,0.00,,,0.11,VWS V14.01,2013-01-01 19:55:00,
2013-01-01 13:56:00,46.1,40.9,30.16,NW,315,6.0,9.0,82,0.00,,,0.11,VWS V14.01,2013-01-01 19:56:00,
2013-01-01 14:00:00,48.8,41.2,30.16,North,359,5.0,12.0,75,0.00,,,0.11,VWS V14.01,2013-01-01 20:00:00,
2013-01-01 14:01:00,46.5,41.3,30.16,North,354,7.0,10.0,82,0.00,,,0.11,VWS V14.01,2013-01-01 20:01:00,
2013-01-01 14:05:00,49.1,41.2,30.17,NNW,343,8.0,13.0,74,0.00,,,0.11,VWS V14.01,2013-01-01 20:05:00,
2013-01-01 14:06:00,46.5,41.0,30.16,NW,316,6.0,7.0,81,0.00,,,0.11,VWS V14.01,2013-01-01 20:06:00,
2013-01-01 14:10:00,49.0,41.1,30.17,NNW,330,9.0,10.0,74,0.00,,,0.11,VWS V14.01,2013-01-01 20:10:00,
2013-01-01 14:11:00,46.8,41.0,30.16,NW,320,7.0,13.0,80,0.00,,,0.11,VWS V14.01,2013-01-01 20:11:00,
2013-01-01 14:15:00,49.0,40.7,30.16,NW,315,8.0,15.0,73,0.00,,,0.11,VWS V14.01,2013-01-01 20:15:00,
2013-01-01 14:16:00,47.1,41.6,30.16,NNW,328,4.0,6.0,81,0.00,,,0.11,VWS V14.01,2013-01-01 20:16:00,
2013-01-01 14:20:00,48.9,40.6,30.16,North,7,9.0,11.0,73,0.00,,,0.11,VWS V14.01,2013-01-01 20:20:00,
2013-01-01 14:21:00,47.4,41.5,30.16,NNW,330,7.0,8.0,80,0.00,,,0.11,VWS V14.01,2013-01-01 20:21:00,
2013-01-01 14:25:00,48.9,40.6,30.16,NNW,338,5.0,12.0,73,0.00,,,0.11,VWS V14.01,2013-01-01 20:25:00,
2013-01-01 14:26:00,48.0,41.8,30.16,NW,317,9.0,11.0,79,0.00,,,0.11,VWS V14.01,2013-01-01 20:26:00,
2013-01-01 14:30:00,49.2,40.9,30.17,WNW,296,5.0,10.0,73,0.00,,,0.11,VWS V14.01,2013-01-01 20:30:00,
2013-01-01 14:31:00,48.2,42.0,30.15,NNW,333,5.0,7.0,79,0.00,,,0.11,VWS V14.01,2013-01-01 20:31:00,
2013-01-01 14:35:00,49.2,40.2,30.17,NW,324,5.0,11.0,71,0.00,,,0.11,VWS V14.01,2013-01-01 20:35:00,
2013-01-01 14:36:00,48.4,41.2,30.15,NNW,338,8.0,10.0,76,0.00,,,0.11,VWS V14.01,2013-01-01 20:36:00,
2013-01-01 14:40:00,49.5,40.5,30.17,NW,304,7.0,10.0,71,0.00,,,0.11,VWS V14.01,2013-01-01 20:40:00,
2013-01-01 14:41:00,48.0,40.8,30.15,NNW,328,3.0,7.0,76,0.00,,,0.11,VWS V14.01,2013-01-01 20:41:00,
2013-01-01 14:45:00,49.5,40.5,30.17,NNW,333,9.0,12.0,71,0.00,,,0.11,VWS V14.01,2013-01-01 20:45:00,
2013-01-01 14:46:00,48.1,41.6,30.15,NW,323,7.0,11.0,78,0.00,,,0.11,VWS V14.01,2013-01-01 20:46:00,
2013-01-01 14:50:00,49.3,40.3,30.17,NW,304,6.0,9.0,71,0.00,,,0.11,VWS V14.01,2013-01-01 20:50:00,
2013-01-01 14:51:00,48.3,41.1,30.16,NW,326,5.0,8.0,76,0.00,,,0.11,VWS V14.01,2013-01-01 20:51:00,
2013-01-01 14:55:00,49.2,40.2,30.17,NNW,331,6.0,10.0,71,0.00,,,0.11,VWS V14.01,2013-01-01 20:55:00,
2013-01-01 14:56:00,48.6,41.4,30.16,North,358,9.0,12.0,76,0.00,,,0.11,VWS V14.01,2013-01-01 20:56:00,
2013-01-01 15:00:00,49.3,40.3,30.17,NNW,337,3.0,8.0,71,0.00,,,0.11,VWS V14.01,2013-01-01 21:00:00,
2013-01-01 15:01:00,48.8,41.6,30.16,NW,323,4.0,5.0,76,0.00,,,0.11,VWS V14.01,2013-01-01 21:01:00,
2013-01-01 15:05:00,49.2,40.2,30.17,NW,317,3.0,8.0,71,0.00,,,0.11,VWS V14.01,2013-01-01 21:05:00,
2013-01-01 15:06:00,49.0,41.1,30.17,NNW,338,6.0,9.0,74,0.00,,,0.11,VWS V14.01,2013-01-01 21:06:00,
2013-01-01 15:10:00,49.1,40.1,30.17,NW,318,4.0,7.0,71,0.00,,,0.11,VWS V14.01,2013-01-01 21:10:00,
2013-01-01 15:11:00,49.0,41.1,30.16,NW,318,10.0,12.0,74,0.00,,,0.11,VWS V14.01,2013-01-01 21:11:00,
2013-01-01 15:15:00,49.2,39.8,30.18,NNW,341,6.0,10.0,70,0.00,,,0.11,VWS V14.01,2013-01-01 21:15:00,
2013-01-01 15:16:00,49.0,40.7,30.16,NW,312,7.0,9.0,73,0.00,,,0.11,VWS V14.01,2013-01-01 21:16:00,
2013-01-01 15:20:00,49.0,39.7,30.17,NW,315,2.0,8.0,70,0.00,,,0.11,VWS V14.01,2013-01-01 21:20:00,
2013-01-01 15:21:00,48.9,40.6,30.16,NNW,331,9.0,12.0,73,0.00,,,0.11,VWS V14.01,2013-01-01 21:21:00,
2013-01-01 15:25:00,49.0,39.7,30.18,NNW,342,3.0,6.0,70,0.00,,,0.11,VWS V14.01,2013-01-01 21:25:00,
2013-01-01 15:26:00,48.9,40.6,30.16,North,357,7.0,9.0,73,0.00,,,0.11,VWS V14.01,2013-01-01 21:26:00,
2013-01-01 15:30:00,49.1,39.8,30.18,NW,307,4.0,7.0,70,0.00,,,0.11,VWS V14.01,2013-01-01 21:30:00,
2013-01-01 15:31:00,49.2,40.9,30.17,NNW,336,10.0,11.0,73,0.00,,,0.11,VWS V14.01,2013-01-01 21:31:00,
2013-01-01 15:35:00,49.0,39.7,30.18,NW,320,4.0,6.0,70,0.00,,,0.11,VWS V14.01,2013-01-01 21:35:00,
2013-01-01 15:36:00,49.3,40.7,30.17,NW,316,2.0,5.0,72,0.00,,,0.11,VWS V14.01,2013-01-01 21:36:00,
2013-01-01 15:40:00,48.9,39.6,30.18,NNW,327,2.0,7.0,70,0.00,,,0.11,VWS V14.01,2013-01-01 21:40:00,
2013-01-01 15:41:00,49.5,40.5,30.17,NW,316,7.0,10.0,71,0.00,,,0.11,VWS V14.01,2013-01-01 21:41:00,
2013-01-01 15:45:00,48.8,39.5,30.19,NNW,331,1.0,4.0,70,0.00,,,0.11,VWS V14.01,2013-01-01 21:45:00,
2013-01-01 15:46:00,49.5,40.5,30.17,NNW,335,6.0,9.0,71,0.00,,,0.11,VWS V14.01,2013-01-01 21:46:00,
2013-01-01 15:50:00,48.8,39.8,30.19,NW,324,0.0,3.0,71,0.00,,,0.11,VWS V14.01,2013-01-01 21:50:00,
2013-01-01 15:51:00,49.3,39.9,30.17,NW,312,3.0,8.0,70,0.00,,,0.11,VWS V14.01,2013-01-01 21:51:00,
2013-01-01 15:55:00,48.8,39.8,30.19,NW,325,0.0,1.0,71,0.00,,,0.11,VWS V14.01,2013-01-01 21:55:00,
2013-01-01 15:56:00,49.3,40.3,30.17,NNW,348,5.0,6.0,71,0.00,,,0.11,VWS V14.01,2013-01-01 21:56:00,
2013-01-01 16:00:00,48.9,39.9,30.19,NW,325,0.0,0.0,71,0.00,,,0.11,VWS V14.01,2013-01-01 22:00:00,
2013-01-01 16:01:00,49.3,40.3,30.17,NW,324,7.0,7.0,71,0.00,,,0.11,VWS V14.01,2013-01-01 22:01:00,
2013-01-01 16:05:00,48.9,39.9,30.19,NW,325,0.0,0.0,71,0.00,,,0.11,VWS V14.01,2013-01-01 22:05:00,
2013-01-01 16:06:00,49.2,40.2,30.17,NW,319,5.0,6.0,71,0.00,,,0.11,VWS V14.01,2013-01-01 22:06:00,
2013-01-01 16:10:00,48.9,39.9,30.18,NW,324,1.0,1.0,71,0.00,,,0.11,VWS V14.01,2013-01-01 22:10:00,
2013-01-01 16:11:00,49.1,40.1,30.18,NNW,333,4.0,4.0,71,0.00,,,0.11,VWS V14.01,2013-01-01 22:11:00,
2013-01-01 16:15:00,48.8,39.8,30.18,NNW,336,3.0,4.0,71,0.00,,,0.11,VWS V14.01,2013-01-01 22:15:00,
2013-01-01 16:16:00,49.2,39.8,30.17,NNW,333,5.0,6.0,70,0.00,,,0.11,VWS V14.01,2013-01-01 22:16:00,
2013-01-01 16:20:00,48.7,39.7,30.19,NNW,333,2.0,3.0,71,0.00,,,0.11,VWS V14.01,2013-01-01 22:20:00,
2013-01-01 16:21:00,49.0,39.7,30.17,NW,311,4.0,5.0,70,0.00,,,0.11,VWS V14.01,2013-01-01 22:21:00,
2013-01-01 16:25:00,48.4,39.8,30.19,NNW,345,1.0,2.0,72,0.00,,,0.11,VWS V14.01,2013-01-01 22:25:00,
2013-01-01 16:26:00,49.0,40.0,30.18,NNW,329,1.0,3.0,71,0.00,,,0.11,VWS V14.01,2013-01-01 22:26:00,
2013-01-01 16:30:00,48.2,39.6,30.19,NNW,345,1.0,2.0,72,0.00,,,0.11,VWS V14.01,2013-01-01 22:30:00,
2013-01-01 16:31:00,49.1,39.8,30.18,NNW,330,4.0,5.0,70,0.00,,,0.11,VWS V14.01,2013-01-01 22:31:00,
2013-01-01 16:35:00,47.9,39.7,30.20,NNW,344,0.0,1.0,73,0.00,,,0.11,VWS V14.01,2013-01-01 22:35:00,
2013-01-01 16:36:00,49.0,39.7,30.18,NNW,336,5.0,6.0,70,0.00,,,0.11,VWS V14.01,2013-01-01 22:36:00,
2013-01-01 16:40:00,47.7,39.8,30.20,North,349,1.0,2.0,74,0.00,,,0.11,VWS V14.01,2013-01-01 22:40:00,
2013-01-01 16:41:00,48.9,39.6,30.18,NNW,327,3.0,3.0,70,0.00,,,0.11,VWS V14.01,2013-01-01 22:41:00,
2013-01-01 16:45:00,47.5,39.3,30.19,North,4,2.0,3.0,73,0.00,,,0.11,VWS V14.01,2013-01-01 22:45:00,
2013-01-01 16:46:00,48.8,39.5,30.19,NNW,332,1.0,1.0,70,0.00,,,0.11,VWS V14.01,2013-01-01 22:46:00,
2013-01-01 16:50:00,47.1,39.2,30.20,North,6,1.0,2.0,74,0.00,,,0.11,VWS V14.01,2013-01-01 22:50:00,
2013-01-01 16:51:00,48.8,39.8,30.19,NW,324,0.0,0.0,71,0.00,,,0.11,VWS V14.01,2013-01-01 22:51:00,
2013-01-01 16:55:00,46.8,39.0,30.20,NNE,18,4.0,5.0,74,0.00,,,0.11,VWS V14.01,2013-01-01 22:55:00,
2013-01-01 16:56:00,48.8,39.8,30.19,NW,324,0.0,0.0,71,0.00,,,0.11,VWS V14.01,2013-01-01 22:56:00,
2013-01-01 17:00:00,48.9,39.9,30.19,NW,325,0.0,0.0,71,0.00,,,0.11,VWS V14.01,2013-01-01 23:00:00,
2013-01-01 17:05:00,48.9,39.9,30.18,NW,325,0.0,0.0,71,0.00,,,0.11,VWS V14.01,2013-01-01 23:05:00,
2013-01-01 17:10:00,48.8,39.8,30.18,NW,326,1.0,2.0,71,0.00,,,0.11,VWS V14.01,2013-01-01 23:10:00,
2013-01-01 17:15:00,48.8,39.8,30.18,NNW,336,2.0,3.0,71,0.00,,,0.11,VWS V14.01,2013-01-01 23:15:00,
2013-01-01 17:20:00,48.6,39.6,30.19,NNW,333,1.0,2.0,71,0.00,,,0.11,VWS V14.01,2013-01-01 23:20:00,
2013-01-01 17:25:00,48.4,39.8,30.19,NNW,344,2.0,2.0,72,0.00,,,0.11,VWS V14.01,2013-01-01 23:25:00,
2013-01-01 17:30:00,48.2,39.6,30.19,NNW,344,1.0,1.0,72,0.00,,,0.11,VWS V14.01,2013-01-01 23:30:00,
2013-01-01 17:35:00,47.9,39.7,30.20,NNW,344,1.0,1.0,73,0.00,,,0.11,VWS V14.01,2013-01-01 23:35:00,
2013-01-01 17:40:00,47.7,39.8,30.20,NNW,348,1.0,1.0,74,0.00,,,0.11,VWS V14.01,2013-01-01 23:40:00,
2013-01-01 17:45:00,47.4,39.2,30.20,North,4,2.0,2.0,73,0.00,,,0.11,VWS V14.01,2013-01-01 23:45:00,
2013-01-01 17:50:00,47.1,39.2,30.20,North,5,2.0,2.0,74,0.00,,,0.11,VWS V14.01,2013-01-01 23:50:00,
2013-01-01 17:55:00,46.8,39.0,30.20,North,355,3.0,4.0,74,0.00,,,0.11,VWS V14.01,2013-01-01 23:55:00,
2013-01-01 18:00:00,46.5,38.7,30.20,NNE,16,2.0,4.0,74,0.00,,,0.11,VWS V14.01,2013-01-02 00:00:00,
2013-01-01 18:05:00,46.2,37.7,30.20,North,6,9.0,9.0,72,0.00,,,0.11,VWS V14.01,2013-01-02 00:05:00,
2013-01-01 18:10:00,46.1,37.2,30.20,NNE,16,4.0,6.0,71,0.00,,,0.11,VWS V14.01,2013-01-02 00:10:00,
2013-01-01 18:15:00,46.0,36.8,30.20,NNE,19,9.0,9.0,70,0.00,,,0.11,VWS V14.01,2013-01-02 00:15:00,
2013-01-01 18:20:00,45.9,36.7,30.20,North,10,6.0,7.0,70,0.00,,,0.11,VWS V14.01,2013-01-02 00:20:00,
2013-01-01 18:25:00,45.6,36.8,30.20,NNE,21,3.0,5.0,71,0.00,,,0.11,VWS V14.01,2013-01-02 00:25:00,
2013-01-01 18:30:00,45.5,36.3,30.20,North,9,6.0,6.0,70,0.00,,,0.11,VWS V14.01,2013-01-02 00:30:00,
2013-01-01 18:35:00,45.3,36.5,30.20,NNE,14,6.0,8.0,71,0.00,,,0.11,VWS V14.01,2013-01-02 00:35:00,
2013-01-01 18:40:00,45.1,36.3,30.20,NNE,14,5.0,5.0,71,0.00,,,0.11,VWS V14.01,2013-01-02 00:40:00,
2013-01-01 18:45:00,44.9,36.1,30.21,NNE,19,4.0,5.0,71,0.00,,,0.11,VWS V14.01,2013-01-02 00:45:00,
2013-01-01 18:50:00,44.9,36.1,30.21,NNE,14,8.0,8.0,71,0.00,,,0.11,VWS V14.01,2013-01-02 00:50:00,
2013-01-01 18:55:00,44.7,35.9,30.22,North,5,5.0,6.0,71,0.00,,,0.11,VWS V14.01,2013-01-02 00:55:00,
2013-01-01 19:00:00,44.6,35.8,30.22,NNE,12,4.0,5.0,71,0.00,,,0.11,VWS V14.01,2013-01-02 01:00:00,
2013-01-01 19:05:00,44.5,36.0,30.22,North,9,6.0,6.0,72,0.00,,,0.11,VWS V14.01,2013-01-02 01:05:00,
2013-01-01 19:10:00,44.4,35.6,30.23,North,8,9.0,9.0,71,0.00,,,0.11,VWS V14.01,2013-01-02 01:10:00,
2013-01-01 19:15:00,44.3,35.5,30.22,NNE,19,4.0,6.0,71,0.00,,,0.11,VWS V14.01,2013-01-02 01:15:00,
2013-01-01 19:20:00,44.3,35.5,30.23,North,6,4.0,6.0,71,0.00,,,0.11,VWS V14.01,2013-01-02 01:20:00,
2013-01-01 19:25:00,44.1,35.3,30.23,North,5,7.0,8.0,71,0.00,,,0.11,VWS V14.01,2013-01-02 01:25:00,
2013-01-01 19:30:00,43.8,35.4,30.22,NNE,16,4.0,5.0,72,0.00,,,0.11,VWS V14.01,2013-01-02 01:30:00,
2013-01-01 19:35:00,43.6,35.2,30.23,North,1,5.0,5.0,72,0.00,,,0.11,VWS V14.01,2013-01-02 01:35:00,
2013-01-01 19:40:00,43.5,35.1,30.23,North,1,4.0,4.0,72,0.00,,,0.11,VWS V14.01,2013-01-02 01:40:00,
2013-01-01 19:45:00,43.3,34.9,30.23,North,8,6.0,6.0,72,0.00,,,0.11,VWS V14.01,2013-01-02 01:45:00,
2013-01-01 19:50:00,43.2,34.8,30.24,NNE,16,8.0,8.0,72,0.00,,,0.11,VWS V14.01,2013-01-02 01:50:00,
2013-01-01 19:55:00,43.2,34.8,30.23,North,356,6.0,7.0,72,0.00,,,0.11,VWS V14.01,2013-01-02 01:55:00,
2013-01-01 20:00:00,43.2,35.1,30.24,North,2,5.0,5.0,73,0.00,,,0.11,VWS V14.01,2013-01-02 02:00:00,
2013-01-01 20:05:00,43.2,35.1,30.24,North,8,4.0,5.0,73,0.00,,,0.11,VWS V14.01,2013-01-02 02:05:00,
2013-01-01 20:10:00,43.2,35.1,30.24,North,6,4.0,4.0,73,0.00,,,0.11,VWS V14.01,2013-01-02 02:10:00,
2013-01-01 20:15:00,43.1,35.0,30.23,NNE,16,6.0,8.0,73,0.00,,,0.11,VWS V14.01,2013-01-02 02:15:00,
2013-01-01 20:20:00,43.1,35.0,30.24,NNE,25,5.0,5.0,73,0.00,,,0.11,VWS V14.01,2013-01-02 02:20:00,
2013-01-01 20:25:00,43.1,35.0,30.24,NNE,19,7.0,7.0,73,0.00,,,0.11,VWS V14.01,2013-01-02 02:25:00,
2013-01-01 20:30:00,43.1,35.0,30.24,NNE,16,4.0,5.0,73,0.00,,,0.11,VWS V14.01,2013-01-02 02:30:00,
2013-01-01 20:35:00,42.9,34.8,30.24,NNE,14,4.0,5.0,73,0.00,,,0.11,VWS V14.01,2013-01-02 02:35:00,
2013-01-01 20:40:00,42.9,34.8,30.25,NNE,18,6.0,8.0,73,0.00,,,0.11,VWS V14.01,2013-01-02 02:40:00,
2013-01-01 20:45:00,42.8,34.8,30.25,NNE,23,3.0,9.0,73,0.00,,,0.11,VWS V14.01,2013-01-02 02:45:00,
2013-01-01 20:50:00,42.5,34.8,30.25,North,4,5.0,8.0,74,0.00,,,0.11,VWS V14.01,2013-01-02 02:50:00,
2013-01-01 20:55:00,42.3,34.6,30.25,NNE,12,6.0,8.0,74,0.00,,,0.11,VWS V14.01,2013-01-02 02:55:00,
2013-01-01 21:00:00,42.0,34.7,30.25,NNE,16,3.0,7.0,75,0.00,,,0.11,VWS V14.01,2013-01-02 03:00:00,
2013-01-01 21:05:00,41.8,34.8,30.26,NNE,18,3.0,6.0,76,0.00,,,0.11,VWS V14.01,2013-01-02 03:05:00,
2013-01-01 21:10:00,41.7,34.7,30.26,North,358,3.0,7.0,76,0.00,,,0.11,VWS V14.01,2013-01-02 03:10:00,
2013-01-01 21:15:00,41.6,34.6,30.26,NNE,19,5.0,8.0,76,0.00,,,0.11,VWS V14.01,2013-01-02 03:15:00,
2013-01-01 21:20:00,41.5,34.8,30.25,North,2,3.0,8.0,77,0.00,,,0.11,VWS V14.01,2013-01-02 03:20:00,
2013-01-01 21:25:00,41.3,34.7,30.26,North,357,5.0,8.0,77,0.00,,,0.11,VWS V14.01,2013-01-02 03:25:00,
2013-01-01 21:30:00,41.1,34.5,30.26,North,352,3.0,7.0,77,0.00,,,0.11,VWS V14.01,2013-01-02 03:30:00,
2013-01-01 21:35:00,40.9,34.6,30.26,North,357,5.0,9.0,78,0.00,,,0.11,VWS V14.01,2013-01-02 03:35:00,
2013-01-01 21:40:00,40.6,34.3,30.26,North,352,5.0,7.0,78,0.00,,,0.11,VWS V14.01,2013-01-02 03:40:00,
2013-01-01 21:45:00,40.3,34.3,30.26,NW,326,3.0,5.0,79,0.00,,,0.11,VWS V14.01,2013-01-02 03:45:00,
2013-01-01 21:50:00,40.1,34.1,30.26,North,350,4.0,5.0,79,0.00,,,0.11,VWS V14.01,2013-01-02 03:50:00,
2013-01-01 21:55:00,40.0,34.0,30.26,NW,316,7.0,10.0,79,0.00,,,0.11,VWS V14.01,2013-01-02 03:55:00,
2013-01-01 22:00:00,39.9,33.9,30.26,NNW,337,7.0,10.0,79,0.00,,,0.11,VWS V14.01,2013-01-02 04:00:00,
2013-01-01 22:05:00,39.8,33.5,30.26,NNW,329,4.0,10.0,78,0.00,,,0.11,VWS V14.01,2013-01-02 04:05:00,
2013-01-01 22:10:00,39.7,33.4,30.27,North,357,9.0,11.0,78,0.00,,,0.11,VWS V14.01,2013-01-02 04:10:00,
2013-01-01 22:15:00,39.7,33.1,30.27,NNW,345,6.0,9.0,77,0.00,,,0.11,VWS V14.01,2013-01-02 04:15:00,
2013-01-01 22:20:00,39.7,33.1,30.27,NNW,348,7.0,9.0,77,0.00,,,0.11,VWS V14.01,2013-01-02 04:20:00,
2013-01-01 22:25:00,39.6,33.0,30.27,North,358,2.0,7.0,77,0.00,,,0.11,VWS V14.01,2013-01-02 04:25:00,
2013-01-01 22:30:00,39.6,32.7,30.28,North,358,7.0,11.0,76,0.00,,,0.11,VWS V14.01,2013-01-02 04:30:00,
2013-01-01 22:35:00,39.5,32.6,30.27,North,8,5.0,10.0,76,0.00,,,0.11,VWS V14.01,2013-01-02 04:35:00,
2013-01-01 22:40:00,39.3,32.7,30.27,North,1,6.0,9.0,77,0.00,,,0.11,VWS V14.01,2013-01-02 04:40:00,
2013-01-01 22:45:00,39.1,32.5,30.27,North,1,6.0,9.0,77,0.00,,,0.11,VWS V14.01,2013-01-02 04:45:00,
2013-01-01 22:50:00,38.9,32.6,30.27,NNE,16,4.0,7.0,78,0.00,,,0.11,VWS V14.01,2013-01-02 04:50:00,
2013-01-01 22:55:00,38.9,32.3,30.27,North,4,5.0,11.0,77,0.00,,,0.11,VWS V14.01,2013-01-02 04:55:00,
2013-01-01 23:00:00,38.8,32.2,30.27,North,360,8.0,13.0,77,0.00,,,0.11,VWS V14.01,2013-01-02 05:00:00,
2013-01-01 23:02:00,38.8,32.2,30.27,North,1,7.0,9.0,77,0.00,,,0.11,VWS V14.01,2013-01-02 05:02:00,
2013-01-01 23:05:00,37.6,30.7,30.27,North,3,7.0,15.0,76,0.00,,,0.00,VWS V14.01,2013-01-02 05:05:00,
2013-01-01 23:07:00,38.7,32.1,30.28,North,351,5.0,9.0,77,0.00,,,0.11,VWS V14.01,2013-01-02 05:07:00,
2013-01-01 23:10:00,37.5,30.6,30.28,North,352,9.0,11.0,76,0.00,,,0.00,VWS V14.01,2013-01-02 05:10:00,
2013-01-01 23:12:00,38.6,31.7,30.28,NNW,327,6.0,7.0,76,0.00,,,0.11,VWS V14.01,2013-01-02 05:12:00,
2013-01-01 23:15:00,37.3,30.8,30.28,North,360,9.0,12.0,77,0.00,,,0.00,VWS V14.01,2013-01-02 05:15:00,
2013-01-01 23:17:00,38.6,31.7,30.27,North,349,8.0,11.0,76,0.00,,,0.11,VWS V14.01,2013-01-02 05:17:00,
2013-01-01 23:20:00,37.2,30.7,30.28,North,2,9.0,13.0,77,0.00,,,0.00,VWS V14.01,2013-01-02 05:20:00,
2013-01-01 23:22:00,38.5,31.6,30.27,North,350,6.0,10.0,76,0.00,,,0.11,VWS V14.01,2013-01-02 05:22:00,
2013-01-01 23:25:00,37.1,30.6,30.28,North,349,7.0,13.0,77,0.00,,,0.00,VWS V14.01,2013-01-02 05:25:00,
2013-01-01 23:27:00,38.4,31.5,30.27,North,352,8.0,11.0,76,0.00,,,0.11,VWS V14.01,2013-01-02 05:27:00,
2013-01-01 23:30:00,36.9,30.7,30.28,North,360,5.0,12.0,78,0.00,,,0.00,VWS V14.01,2013-01-02 05:30:00,
2013-01-01 23:32:00,38.3,31.4,30.27,NNE,12,8.0,12.0,76,0.00,,,0.11,VWS V14.01,2013-01-02 05:32:00,
2013-01-01 23:35:00,36.7,30.5,30.28,North,360,12.0,12.0,78,0.00,,,0.00,VWS V14.01,2013-01-02 05:35:00,
2013-01-01 23:36:00,38.2,31.3,30.27,NNW,340,5.0,14.0,76,0.00,,,0.11,VWS V14.01,2013-01-02 05:36:00,
2013-01-01 23:40:00,36.6,30.4,30.28,North,5,15.0,15.0,78,0.00,,,0.00,VWS V14.01,2013-01-02 05:40:00,
2013-01-01 23:41:00,38.1,31.2,30.27,North,357,6.0,10.0,76,0.00,,,0.11,VWS V14.01,2013-01-02 05:41:00,
2013-01-01 23:45:00,36.5,30.3,30.28,NNW,347,10.0,15.0,78,0.00,,,0.00,VWS V14.01,2013-01-02 05:45:00,
2013-01-01 23:46:00,38.0,30.8,30.26,NNW,329,6.0,13.0,75,0.00,,,0.11,VWS V14.01,2013-01-02 05:46:00,
2013-01-01 23:50:00,36.3,30.1,30.28,North,1,12.0,15.0,78,0.00,,,0.00,VWS V14.01,2013-01-02 05:50:00,
2013-01-01 23:51:00,37.9,30.7,30.27,North,352,13.0,15.0,75,0.00,,,0.11,VWS V14.01,2013-01-02 05:51:00,
2013-01-01 23:55:00,36.1,29.9,30.28,North,358,10.0,13.0,78,0.00,,,0.00,VWS V14.01,2013-01-02 05:55:00,
2013-01-01 23:56:00,37.8,30.9,30.27,NNW,347,9.0,12.0,76,0.00,,,0.11,VWS V14.01,2013-01-02 05:56:00,